This is the latest recevied weather packets stored in our database for station/object HA6IFZ-10. If no packets are shown the sender has not sent any weather packets the latest 10 day(s).
| Time | Temp. | Humidity | Pressure | Rain* | Wind** | Luminosity | Snow |
|---|---|---|---|---|---|---|---|
| 1787629677 | 17.78° C | 48% | 1024.5 hPa | - | - | - | - |
| 1787628777 | 17.78° C | 48% | 1024.7 hPa | - | - | - | - |
| 1787627877 | 18.33° C | 48% | 1024.6 hPa | - | - | - | - |
| 1787626977 | 18.33° C | 47% | 1024.7 hPa | - | - | - | - |
| 1787626077 | 17.78° C | 50% | 1024.7 hPa | - | - | - | - |
| 1787625177 | 17.22° C | 52% | 1024.6 hPa | - | - | - | - |
| 1787624277 | 16.67° C | 56% | 1025 hPa | - | - | - | - |
| 1787623377 | 17.22° C | 55% | 1025.1 hPa | - | - | - | - |
| 1787622477 | 17.22° C | 55% | 1025.1 hPa | - | - | - | - |
| 1787621576 | 16.67° C | 56% | 1025.3 hPa | - | - | - | - |
| 1787620676 | 17.22° C | 53% | 1025.4 hPa | - | - | - | - |
| 1787619775 | 17.78° C | 53% | 1025.5 hPa | - | - | - | - |
| 1787618875 | 17.78° C | 53% | 1025.7 hPa | - | - | - | - |
| 1787618028 | 17.78° C | 55% | 1025.8 hPa | - | - | - | - |
| 1787617979 | 17.78° C | 55% | 1025.8 hPa | - | - | - | - |
| 1787617075 | 17.78° C | 55% | 1025.9 hPa | - | - | - | - |
| 1787616175 | 17.78° C | 56% | 1026 hPa | - | - | - | - |
| 1787615275 | 18.33° C | 54% | 1026.2 hPa | - | - | - | - |
| 1787614375 | 18.89° C | 53% | 1026.4 hPa | - | - | - | - |
| 1787613475 | 18.89° C | 50% | 1026.5 hPa | - | - | - | - |
| 1787611676 | 18.33° C | 53% | 1026.7 hPa | - | - | - | - |
| 1787610776 | 19.44° C | 50% | 1026.8 hPa | - | - | - | - |
| 1787609876 | 19.44° C | 50% | 1026.9 hPa | - | - | - | - |
| 1787608976 | 19.44° C | 50% | 1026.7 hPa | - | - | - | - |
| 1787608076 | 19.44° C | 49% | 1026.6 hPa | - | - | - | - |
* Rain since midnight (hover to see other rain measurements)
** Current wind speed in m/s (hover to see current wind gust speed)